sensor_id;sensor_type;location;lat;lon;timestamp;temperature;humidity
24412;DHT22;12544;46.760;15.942;2023-04-19T00:01:00;9.60;99.90
24412;DHT22;12544;46.760;15.942;2023-04-19T00:03:28;9.70;99.90
24412;DHT22;12544;46.760;15.942;2023-04-19T00:05:55;9.60;99.90
24412;DHT22;12544;46.760;15.942;2023-04-19T00:08:24;9.60;99.90
24412;DHT22;12544;46.760;15.942;2023-04-19T00:10:50;9.60;99.90
24412;DHT22;12544;46.760;15.942;2023-04-19T00:13:16;9.60;99.90
24412;DHT22;12544;46.760;15.942;2023-04-19T00:15:41;9.60;99.90
24412;DHT22;12544;46.760;15.942;2023-04-19T00:18:14;9.60;99.90
24412;DHT22;12544;46.760;15.942;2023-04-19T00:20:40;9.60;99.90
24412;DHT22;12544;46.760;15.942;2023-04-19T00:23:05;9.60;99.90
24412;DHT22;12544;46.760;15.942;2023-04-19T00:25:31;9.50;99.90
24412;DHT22;12544;46.760;15.942;2023-04-19T00:27:59;9.60;99.90
24412;DHT22;12544;46.760;15.942;2023-04-19T00:30:24;9.50;99.90
24412;DHT22;12544;46.760;15.942;2023-04-19T00:32:50;9.60;99.90
24412;DHT22;12544;46.760;15.942;2023-04-19T00:35:16;9.50;99.90
24412;DHT22;12544;46.760;15.942;2023-04-19T00:37:41;9.50;99.90
24412;DHT22;12544;46.760;15.942;2023-04-19T00:40:09;9.60;99.90
24412;DHT22;12544;46.760;15.942;2023-04-19T00:42:36;9.50;99.90
24412;DHT22;12544;46.760;15.942;2023-04-19T00:45:02;9.50;99.90
24412;DHT22;12544;46.760;15.942;2023-04-19T00:47:29;9.50;99.90
24412;DHT22;12544;46.760;15.942;2023-04-19T00:49:55;9.50;99.90
24412;DHT22;12544;46.760;15.942;2023-04-19T00:52:26;9.40;99.90
24412;DHT22;12544;46.760;15.942;2023-04-19T00:54:52;9.50;99.90
24412;DHT22;12544;46.760;15.942;2023-04-19T00:57:19;9.50;99.90
24412;DHT22;12544;46.760;15.942;2023-04-19T00:59:46;9.40;99.90
24412;DHT22;12544;46.760;15.942;2023-04-19T01:02:12;9.40;99.90
24412;DHT22;12544;46.760;15.942;2023-04-19T01:04:37;9.30;99.90
24412;DHT22;12544;46.760;15.942;2023-04-19T01:07:03;9.40;99.90
24412;DHT22;12544;46.760;15.942;2023-04-19T01:09:30;9.40;99.90
24412;DHT22;12544;46.760;15.942;2023-04-19T01:11:55;9.40;99.90
24412;DHT22;12544;46.760;15.942;2023-04-19T01:14:21;9.30;99.90
24412;DHT22;12544;46.760;15.942;2023-04-19T01:16:47;9.30;99.90
24412;DHT22;12544;46.760;15.942;2023-04-19T01:19:12;9.30;99.90
24412;DHT22;12544;46.760;15.942;2023-04-19T01:21:38;9.30;99.90
24412;DHT22;12544;46.760;15.942;2023-04-19T01:24:05;9.30;99.90
24412;DHT22;12544;46.760;15.942;2023-04-19T01:26:30;9.30;99.90
24412;DHT22;12544;46.760;15.942;2023-04-19T01:28:56;9.30;99.90
24412;DHT22;12544;46.760;15.942;2023-04-19T01:31:22;9.30;99.90
24412;DHT22;12544;46.760;15.942;2023-04-19T01:33:47;9.30;99.90
24412;DHT22;12544;46.760;15.942;2023-04-19T01:36:13;9.30;99.90
24412;DHT22;12544;46.760;15.942;2023-04-19T01:38:39;9.30;99.90
24412;DHT22;12544;46.760;15.942;2023-04-19T01:41:04;9.30;99.90
24412;DHT22;12544;46.760;15.942;2023-04-19T01:43:31;9.20;99.90
24412;DHT22;12544;46.760;15.942;2023-04-19T01:45:56;9.20;99.90
24412;DHT22;12544;46.760;15.942;2023-04-19T01:48:22;9.20;99.90
24412;DHT22;12544;46.760;15.942;2023-04-19T01:50:47;9.20;99.90
24412;DHT22;12544;46.760;15.942;2023-04-19T01:53:13;9.10;99.90
24412;DHT22;12544;46.760;15.942;2023-04-19T01:55:39;9.10;99.90
24412;DHT22;12544;46.760;15.942;2023-04-19T01:58:04;9.10;99.90
24412;DHT22;12544;46.760;15.942;2023-04-19T02:00:30;9.10;99.90
24412;DHT22;12544;46.760;15.942;2023-04-19T02:02:55;9.10;99.90
24412;DHT22;12544;46.760;15.942;2023-04-19T02:05:21;9.10;99.90
24412;DHT22;12544;46.760;15.942;2023-04-19T02:07:47;9.10;99.90
24412;DHT22;12544;46.760;15.942;2023-04-19T02:10:12;9.10;99.90
24412;DHT22;12544;46.760;15.942;2023-04-19T02:12:39;9.10;99.90
24412;DHT22;12544;46.760;15.942;2023-04-19T02:15:06;9.10;99.90
24412;DHT22;12544;46.760;15.942;2023-04-19T02:17:31;9.00;99.90
24412;DHT22;12544;46.760;15.942;2023-04-19T02:19:57;9.00;99.90
24412;DHT22;12544;46.760;15.942;2023-04-19T02:22:22;9.00;99.90
24412;DHT22;12544;46.760;15.942;2023-04-19T02:24:51;9.10;99.90
24412;DHT22;12544;46.760;15.942;2023-04-19T02:27:17;9.00;99.90
24412;DHT22;12544;46.760;15.942;2023-04-19T02:29:43;9.00;99.90
24412;DHT22;12544;46.760;15.942;2023-04-19T02:32:10;8.90;99.90
24412;DHT22;12544;46.760;15.942;2023-04-19T02:34:36;8.90;99.90
24412;DHT22;12544;46.760;15.942;2023-04-19T02:37:02;8.90;99.90
24412;DHT22;12544;46.760;15.942;2023-04-19T02:39:28;8.90;99.90
24412;DHT22;12544;46.760;15.942;2023-04-19T02:41:54;8.80;99.90
24412;DHT22;12544;46.760;15.942;2023-04-19T02:44:20;8.80;99.90
24412;DHT22;12544;46.760;15.942;2023-04-19T02:46:52;8.70;99.90
24412;DHT22;12544;46.760;15.942;2023-04-19T02:49:18;8.70;99.90
24412;DHT22;12544;46.760;15.942;2023-04-19T02:51:44;8.70;99.90
24412;DHT22;12544;46.760;15.942;2023-04-19T02:54:11;8.70;99.90
24412;DHT22;12544;46.760;15.942;2023-04-19T02:56:37;8.60;99.90
24412;DHT22;12544;46.760;15.942;2023-04-19T02:59:02;8.60;99.90
24412;DHT22;12544;46.760;15.942;2023-04-19T03:01:29;8.60;99.90
24412;DHT22;12544;46.760;15.942;2023-04-19T03:03:54;8.60;99.90
24412;DHT22;12544;46.760;15.942;2023-04-19T03:06:20;8.50;99.90
24412;DHT22;12544;46.760;15.942;2023-04-19T03:08:46;8.50;99.90
24412;DHT22;12544;46.760;15.942;2023-04-19T03:11:13;8.50;99.90
24412;DHT22;12544;46.760;15.942;2023-04-19T03:13:38;8.50;99.90
24412;DHT22;12544;46.760;15.942;2023-04-19T03:16:05;8.40;99.90
24412;DHT22;12544;46.760;15.942;2023-04-19T03:18:31;8.40;99.90
24412;DHT22;12544;46.760;15.942;2023-04-19T03:21:00;8.40;99.90
24412;DHT22;12544;46.760;15.942;2023-04-19T03:23:25;8.40;99.90
24412;DHT22;12544;46.760;15.942;2023-04-19T03:25:52;8.40;99.90
24412;DHT22;12544;46.760;15.942;2023-04-19T03:28:17;8.40;99.90
24412;DHT22;12544;46.760;15.942;2023-04-19T03:30:43;8.30;99.90
24412;DHT22;12544;46.760;15.942;2023-04-19T03:33:08;8.30;99.90
24412;DHT22;12544;46.760;15.942;2023-04-19T03:35:34;8.30;99.90
24412;DHT22;12544;46.760;15.942;2023-04-19T03:38:00;8.30;99.90
24412;DHT22;12544;46.760;15.942;2023-04-19T03:40:26;8.20;99.90
24412;DHT22;12544;46.760;15.942;2023-04-19T03:42:51;8.20;99.90
24412;DHT22;12544;46.760;15.942;2023-04-19T03:45:17;8.10;99.90
24412;DHT22;12544;46.760;15.942;2023-04-19T03:47:43;8.10;99.90
24412;DHT22;12544;46.760;15.942;2023-04-19T03:50:09;8.10;99.90
24412;DHT22;12544;46.760;15.942;2023-04-19T03:52:34;8.00;99.90
24412;DHT22;12544;46.760;15.942;2023-04-19T03:55:00;8.00;99.90
24412;DHT22;12544;46.760;15.942;2023-04-19T03:57:26;8.00;99.90
24412;DHT22;12544;46.760;15.942;2023-04-19T03:59:51;8.00;99.90
24412;DHT22;12544;46.760;15.942;2023-04-19T04:02:17;8.00;99.90
24412;DHT22;12544;46.760;15.942;2023-04-19T04:04:42;8.00;99.90
24412;DHT22;12544;46.760;15.942;2023-04-19T04:07:08;8.00;99.90
24412;DHT22;12544;46.760;15.942;2023-04-19T04:09:34;8.00;99.90
24412;DHT22;12544;46.760;15.942;2023-04-19T04:11:59;8.00;99.90
24412;DHT22;12544;46.760;15.942;2023-04-19T04:14:25;8.00;99.90
24412;DHT22;12544;46.760;15.942;2023-04-19T04:16:51;8.00;99.90
24412;DHT22;12544;46.760;15.942;2023-04-19T04:19:17;7.90;99.90
24412;DHT22;12544;46.760;15.942;2023-04-19T04:21:43;7.90;99.90
24412;DHT22;12544;46.760;15.942;2023-04-19T04:24:15;7.90;99.90
24412;DHT22;12544;46.760;15.942;2023-04-19T04:26:42;7.90;99.90
24412;DHT22;12544;46.760;15.942;2023-04-19T04:29:07;7.90;99.90
24412;DHT22;12544;46.760;15.942;2023-04-19T04:31:33;7.90;99.90
24412;DHT22;12544;46.760;15.942;2023-04-19T04:34:01;8.00;99.90
24412;DHT22;12544;46.760;15.942;2023-04-19T04:36:26;8.00;99.90
24412;DHT22;12544;46.760;15.942;2023-04-19T04:38:54;8.00;99.90
24412;DHT22;12544;46.760;15.942;2023-04-19T04:41:19;8.00;99.90
24412;DHT22;12544;46.760;15.942;2023-04-19T04:43:45;8.10;99.90
24412;DHT22;12544;46.760;15.942;2023-04-19T04:46:13;8.20;99.90
24412;DHT22;12544;46.760;15.942;2023-04-19T04:48:39;8.20;99.90
24412;DHT22;12544;46.760;15.942;2023-04-19T04:51:05;8.30;99.90
24412;DHT22;12544;46.760;15.942;2023-04-19T04:53:30;8.30;99.90
24412;DHT22;12544;46.760;15.942;2023-04-19T04:55:56;8.30;99.90
24412;DHT22;12544;46.760;15.942;2023-04-19T04:58:22;8.20;99.90
24412;DHT22;12544;46.760;15.942;2023-04-19T05:00:47;8.20;99.90
24412;DHT22;12544;46.760;15.942;2023-04-19T05:03:13;8.10;99.90
24412;DHT22;12544;46.760;15.942;2023-04-19T05:05:39;8.10;99.90
24412;DHT22;12544;46.760;15.942;2023-04-19T05:08:05;8.10;99.90
24412;DHT22;12544;46.760;15.942;2023-04-19T05:10:30;8.10;99.90
24412;DHT22;12544;46.760;15.942;2023-04-19T05:12:56;8.10;99.90
24412;DHT22;12544;46.760;15.942;2023-04-19T05:15:22;8.20;99.90
24412;DHT22;12544;46.760;15.942;2023-04-19T05:17:47;8.20;99.90
24412;DHT22;12544;46.760;15.942;2023-04-19T05:20:13;8.20;99.90
24412;DHT22;12544;46.760;15.942;2023-04-19T05:22:39;8.20;99.90
24412;DHT22;12544;46.760;15.942;2023-04-19T05:25:05;8.30;99.90
24412;DHT22;12544;46.760;15.942;2023-04-19T05:27:31;8.30;99.90
24412;DHT22;12544;46.760;15.942;2023-04-19T05:29:57;8.40;99.90
24412;DHT22;12544;46.760;15.942;2023-04-19T05:32:23;8.50;99.90
24412;DHT22;12544;46.760;15.942;2023-04-19T05:34:48;8.60;99.90
24412;DHT22;12544;46.760;15.942;2023-04-19T05:37:14;8.70;99.90
24412;DHT22;12544;46.760;15.942;2023-04-19T05:39:39;8.80;99.90
24412;DHT22;12544;46.760;15.942;2023-04-19T05:42:05;8.80;99.90
24412;DHT22;12544;46.760;15.942;2023-04-19T05:44:31;8.90;99.90
24412;DHT22;12544;46.760;15.942;2023-04-19T05:46:57;9.00;99.90
24412;DHT22;12544;46.760;15.942;2023-04-19T05:49:22;9.10;99.90
24412;DHT22;12544;46.760;15.942;2023-04-19T05:51:48;9.30;99.90
24412;DHT22;12544;46.760;15.942;2023-04-19T05:54:14;9.40;99.90
24412;DHT22;12544;46.760;15.942;2023-04-19T05:56:40;9.50;99.90
24412;DHT22;12544;46.760;15.942;2023-04-19T05:59:06;9.60;99.90
24412;DHT22;12544;46.760;15.942;2023-04-19T06:01:32;9.70;99.90
24412;DHT22;12544;46.760;15.942;2023-04-19T06:03:59;9.80;99.90
24412;DHT22;12544;46.760;15.942;2023-04-19T06:06:25;10.00;99.90
24412;DHT22;12544;46.760;15.942;2023-04-19T06:08:51;10.10;99.90
24412;DHT22;12544;46.760;15.942;2023-04-19T06:11:17;10.20;99.90
24412;DHT22;12544;46.760;15.942;2023-04-19T06:13:42;10.30;99.90
24412;DHT22;12544;46.760;15.942;2023-04-19T06:16:09;10.50;99.90
24412;DHT22;12544;46.760;15.942;2023-04-19T06:18:35;10.50;99.90
24412;DHT22;12544;46.760;15.942;2023-04-19T06:21:00;10.60;99.90
24412;DHT22;12544;46.760;15.942;2023-04-19T06:23:26;10.80;99.90
24412;DHT22;12544;46.760;15.942;2023-04-19T06:25:52;10.90;99.90
24412;DHT22;12544;46.760;15.942;2023-04-19T06:28:17;11.10;99.90
24412;DHT22;12544;46.760;15.942;2023-04-19T06:30:44;11.20;99.90
24412;DHT22;12544;46.760;15.942;2023-04-19T06:33:10;11.20;99.90
24412;DHT22;12544;46.760;15.942;2023-04-19T06:35:35;11.30;99.90
24412;DHT22;12544;46.760;15.942;2023-04-19T06:38:01;11.40;99.90
24412;DHT22;12544;46.760;15.942;2023-04-19T06:40:27;11.50;99.90
24412;DHT22;12544;46.760;15.942;2023-04-19T06:42:54;11.70;99.90
24412;DHT22;12544;46.760;15.942;2023-04-19T06:45:20;11.80;99.90
24412;DHT22;12544;46.760;15.942;2023-04-19T06:47:46;11.90;99.90
24412;DHT22;12544;46.760;15.942;2023-04-19T06:50:12;12.00;99.90
24412;DHT22;12544;46.760;15.942;2023-04-19T06:52:38;12.10;99.90
24412;DHT22;12544;46.760;15.942;2023-04-19T06:55:05;12.20;99.90
24412;DHT22;12544;46.760;15.942;2023-04-19T06:57:31;12.30;99.90
24412;DHT22;12544;46.760;15.942;2023-04-19T06:59:57;12.40;99.90
24412;DHT22;12544;46.760;15.942;2023-04-19T07:02:23;12.50;99.90
24412;DHT22;12544;46.760;15.942;2023-04-19T07:04:48;12.50;99.90
24412;DHT22;12544;46.760;15.942;2023-04-19T07:07:23;12.60;99.90
24412;DHT22;12544;46.760;15.942;2023-04-19T07:09:48;12.60;99.90
24412;DHT22;12544;46.760;15.942;2023-04-19T07:12:14;12.70;99.90
24412;DHT22;12544;46.760;15.942;2023-04-19T07:14:40;12.80;99.90
24412;DHT22;12544;46.760;15.942;2023-04-19T07:17:05;12.80;99.90
24412;DHT22;12544;46.760;15.942;2023-04-19T07:19:31;12.90;99.90
24412;DHT22;12544;46.760;15.942;2023-04-19T07:21:57;13.00;99.90
24412;DHT22;12544;46.760;15.942;2023-04-19T07:24:23;13.10;99.90
24412;DHT22;12544;46.760;15.942;2023-04-19T07:26:49;13.30;99.90
24412;DHT22;12544;46.760;15.942;2023-04-19T07:29:15;13.40;99.90
24412;DHT22;12544;46.760;15.942;2023-04-19T07:31:43;13.50;99.90
24412;DHT22;12544;46.760;15.942;2023-04-19T07:34:08;13.60;99.90
24412;DHT22;12544;46.760;15.942;2023-04-19T07:36:35;13.60;99.90
24412;DHT22;12544;46.760;15.942;2023-04-19T07:39:02;13.70;99.90
24412;DHT22;12544;46.760;15.942;2023-04-19T07:41:30;13.80;99.90
24412;DHT22;12544;46.760;15.942;2023-04-19T07:43:55;13.90;99.90
24412;DHT22;12544;46.760;15.942;2023-04-19T07:46:21;14.00;99.90
24412;DHT22;12544;46.760;15.942;2023-04-19T07:48:47;13.90;99.90
24412;DHT22;12544;46.760;15.942;2023-04-19T07:51:16;13.90;99.90
24412;DHT22;12544;46.760;15.942;2023-04-19T07:53:42;14.00;99.90
24412;DHT22;12544;46.760;15.942;2023-04-19T07:56:09;14.10;99.90
24412;DHT22;12544;46.760;15.942;2023-04-19T07:58:36;14.20;99.90
24412;DHT22;12544;46.760;15.942;2023-04-19T08:01:03;14.10;99.90
24412;DHT22;12544;46.760;15.942;2023-04-19T08:03:29;14.10;99.90
24412;DHT22;12544;46.760;15.942;2023-04-19T08:05:56;14.20;99.90
24412;DHT22;12544;46.760;15.942;2023-04-19T08:08:22;14.30;99.90
24412;DHT22;12544;46.760;15.942;2023-04-19T08:10:49;14.50;99.90
24412;DHT22;12544;46.760;15.942;2023-04-19T08:13:15;14.80;99.90
24412;DHT22;12544;46.760;15.942;2023-04-19T08:15:41;14.90;99.90
24412;DHT22;12544;46.760;15.942;2023-04-19T08:18:07;14.90;99.90
24412;DHT22;12544;46.760;15.942;2023-04-19T08:20:32;15.00;99.90
24412;DHT22;12544;46.760;15.942;2023-04-19T08:22:59;15.10;99.90
24412;DHT22;12544;46.760;15.942;2023-04-19T08:25:24;15.20;99.90
24412;DHT22;12544;46.760;15.942;2023-04-19T08:27:55;15.30;99.90
24412;DHT22;12544;46.760;15.942;2023-04-19T08:30:22;15.40;99.90
24412;DHT22;12544;46.760;15.942;2023-04-19T08:33:05;15.20;99.90
24412;DHT22;12544;46.760;15.942;2023-04-19T08:35:33;15.40;99.90
24412;DHT22;12544;46.760;15.942;2023-04-19T08:37:59;15.30;99.90
24412;DHT22;12544;46.760;15.942;2023-04-19T08:40:25;15.20;99.90
24412;DHT22;12544;46.760;15.942;2023-04-19T08:42:50;15.30;99.90
24412;DHT22;12544;46.760;15.942;2023-04-19T08:45:18;15.40;99.90
24412;DHT22;12544;46.760;15.942;2023-04-19T08:47:46;15.50;99.90
24412;DHT22;12544;46.760;15.942;2023-04-19T08:50:13;15.20;99.90
24412;DHT22;12544;46.760;15.942;2023-04-19T08:52:39;14.80;99.90
24412;DHT22;12544;46.760;15.942;2023-04-19T08:55:07;14.70;99.90
24412;DHT22;12544;46.760;15.942;2023-04-19T09:00:47;14.70;99.90
24412;DHT22;12544;46.760;15.942;2023-04-19T09:03:12;14.90;99.90
24412;DHT22;12544;46.760;15.942;2023-04-19T09:05:38;14.90;99.90
24412;DHT22;12544;46.760;15.942;2023-04-19T09:08:25;15.10;99.90
24412;DHT22;12544;46.760;15.942;2023-04-19T09:10:55;15.20;99.90
24412;DHT22;12544;46.760;15.942;2023-04-19T09:13:22;15.00;99.90
24412;DHT22;12544;46.760;15.942;2023-04-19T09:15:47;14.90;99.90
24412;DHT22;12544;46.760;15.942;2023-04-19T09:18:13;14.90;99.90
24412;DHT22;12544;46.760;15.942;2023-04-19T09:20:40;15.10;99.90
24412;DHT22;12544;46.760;15.942;2023-04-19T09:23:09;15.20;99.90
24412;DHT22;12544;46.760;15.942;2023-04-19T09:25:37;15.10;99.90
24412;DHT22;12544;46.760;15.942;2023-04-19T09:28:10;14.90;99.90
24412;DHT22;12544;46.760;15.942;2023-04-19T09:30:37;14.70;99.90
24412;DHT22;12544;46.760;15.942;2023-04-19T09:33:03;14.50;99.90
24412;DHT22;12544;46.760;15.942;2023-04-19T09:35:49;14.50;99.90
24412;DHT22;12544;46.760;15.942;2023-04-19T09:38:15;14.40;99.90
24412;DHT22;12544;46.760;15.942;2023-04-19T09:40:41;14.50;99.90
24412;DHT22;12544;46.760;15.942;2023-04-19T09:43:07;14.50;99.90
24412;DHT22;12544;46.760;15.942;2023-04-19T09:48:06;14.40;99.90
24412;DHT22;12544;46.760;15.942;2023-04-19T09:50:32;14.40;99.90
24412;DHT22;12544;46.760;15.942;2023-04-19T09:52:59;14.40;99.90
24412;DHT22;12544;46.760;15.942;2023-04-19T09:55:25;14.40;99.90
24412;DHT22;12544;46.760;15.942;2023-04-19T09:57:52;14.30;99.90
24412;DHT22;12544;46.760;15.942;2023-04-19T10:00:18;14.30;99.90
24412;DHT22;12544;46.760;15.942;2023-04-19T10:02:46;14.20;99.90
24412;DHT22;12544;46.760;15.942;2023-04-19T10:05:19;14.20;99.90
24412;DHT22;12544;46.760;15.942;2023-04-19T10:07:46;14.10;99.90
24412;DHT22;12544;46.760;15.942;2023-04-19T10:10:15;14.10;99.90
24412;DHT22;12544;46.760;15.942;2023-04-19T10:12:45;14.10;99.90
24412;DHT22;12544;46.760;15.942;2023-04-19T10:15:12;14.10;99.90
24412;DHT22;12544;46.760;15.942;2023-04-19T10:17:39;14.20;99.90
24412;DHT22;12544;46.760;15.942;2023-04-19T10:20:08;14.30;99.90
24412;DHT22;12544;46.760;15.942;2023-04-19T10:22:35;14.40;99.90
24412;DHT22;12544;46.760;15.942;2023-04-19T10:25:14;14.50;99.90
24412;DHT22;12544;46.760;15.942;2023-04-19T10:27:48;14.30;99.90
24412;DHT22;12544;46.760;15.942;2023-04-19T10:30:17;14.30;99.90
24412;DHT22;12544;46.760;15.942;2023-04-19T10:32:50;14.10;99.90
24412;DHT22;12544;46.760;15.942;2023-04-19T10:38:08;13.70;99.90
24412;DHT22;12544;46.760;15.942;2023-04-19T10:40:53;13.60;99.90
24412;DHT22;12544;46.760;15.942;2023-04-19T10:43:21;13.60;99.90
24412;DHT22;12544;46.760;15.942;2023-04-19T10:45:47;13.70;99.90
24412;DHT22;12544;46.760;15.942;2023-04-19T10:48:51;13.80;99.90
24412;DHT22;12544;46.760;15.942;2023-04-19T10:51:40;13.70;99.90
24412;DHT22;12544;46.760;15.942;2023-04-19T10:57:07;13.70;99.90
24412;DHT22;12544;46.760;15.942;2023-04-19T10:59:37;13.70;99.90
24412;DHT22;12544;46.760;15.942;2023-04-19T11:02:27;13.80;99.90
24412;DHT22;12544;46.760;15.942;2023-04-19T11:07:18;13.80;99.90
24412;DHT22;12544;46.760;15.942;2023-04-19T11:09:48;13.90;99.90
24412;DHT22;12544;46.760;15.942;2023-04-19T11:12:16;14.00;99.90
24412;DHT22;12544;46.760;15.942;2023-04-19T11:14:43;13.80;99.90
24412;DHT22;12544;46.760;15.942;2023-04-19T11:20:05;13.50;99.90
24412;DHT22;12544;46.760;15.942;2023-04-19T11:22:38;13.50;99.90
24412;DHT22;12544;46.760;15.942;2023-04-19T11:27:38;13.30;99.90
24412;DHT22;12544;46.760;15.942;2023-04-19T11:30:05;13.30;99.90
24412;DHT22;12544;46.760;15.942;2023-04-19T11:32:32;13.40;99.90
24412;DHT22;12544;46.760;15.942;2023-04-19T11:35:09;13.30;99.90
24412;DHT22;12544;46.760;15.942;2023-04-19T11:37:36;13.30;99.90
24412;DHT22;12544;46.760;15.942;2023-04-19T11:40:03;13.00;99.90
24412;DHT22;12544;46.760;15.942;2023-04-19T11:42:30;12.90;99.90
24412;DHT22;12544;46.760;15.942;2023-04-19T11:44:56;12.90;99.90
24412;DHT22;12544;46.760;15.942;2023-04-19T11:47:25;12.70;99.90
24412;DHT22;12544;46.760;15.942;2023-04-19T11:49:51;12.70;99.90
24412;DHT22;12544;46.760;15.942;2023-04-19T11:52:24;12.70;99.90
24412;DHT22;12544;46.760;15.942;2023-04-19T11:54:53;12.80;99.90
24412;DHT22;12544;46.760;15.942;2023-04-19T11:57:29;12.80;99.90
24412;DHT22;12544;46.760;15.942;2023-04-19T12:00:06;12.70;99.90
24412;DHT22;12544;46.760;15.942;2023-04-19T12:02:41;12.60;99.90
24412;DHT22;12544;46.760;15.942;2023-04-19T12:05:11;12.60;99.90
24412;DHT22;12544;46.760;15.942;2023-04-19T12:07:55;12.60;99.90
24412;DHT22;12544;46.760;15.942;2023-04-19T12:10:21;12.50;99.90
24412;DHT22;12544;46.760;15.942;2023-04-19T12:12:47;12.50;99.90
24412;DHT22;12544;46.760;15.942;2023-04-19T12:15:12;12.40;99.90
24412;DHT22;12544;46.760;15.942;2023-04-19T12:17:59;12.40;99.90
24412;DHT22;12544;46.760;15.942;2023-04-19T12:20:32;12.40;99.90
24412;DHT22;12544;46.760;15.942;2023-04-19T12:22:58;12.40;99.90
24412;DHT22;12544;46.760;15.942;2023-04-19T12:25:32;12.60;99.90
24412;DHT22;12544;46.760;15.942;2023-04-19T12:27:59;12.40;99.90
24412;DHT22;12544;46.760;15.942;2023-04-19T12:30:25;12.40;99.90
24412;DHT22;12544;46.760;15.942;2023-04-19T12:32:52;12.30;99.90
24412;DHT22;12544;46.760;15.942;2023-04-19T12:35:24;12.40;99.90
24412;DHT22;12544;46.760;15.942;2023-04-19T12:37:51;12.30;99.90
24412;DHT22;12544;46.760;15.942;2023-04-19T12:40:16;12.30;99.90
24412;DHT22;12544;46.760;15.942;2023-04-19T12:42:42;12.40;99.90
24412;DHT22;12544;46.760;15.942;2023-04-19T12:45:09;12.40;99.90
24412;DHT22;12544;46.760;15.942;2023-04-19T12:47:34;12.40;99.90
24412;DHT22;12544;46.760;15.942;2023-04-19T12:50:00;12.40;99.90
24412;DHT22;12544;46.760;15.942;2023-04-19T12:52:26;12.40;99.90
24412;DHT22;12544;46.760;15.942;2023-04-19T12:54:51;12.40;99.90
24412;DHT22;12544;46.760;15.942;2023-04-19T12:57:17;12.50;99.90
24412;DHT22;12544;46.760;15.942;2023-04-19T12:59:43;12.50;99.90
24412;DHT22;12544;46.760;15.942;2023-04-19T13:02:08;12.50;99.90
24412;DHT22;12544;46.760;15.942;2023-04-19T13:04:35;12.50;99.90
24412;DHT22;12544;46.760;15.942;2023-04-19T13:07:00;12.60;99.90
24412;DHT22;12544;46.760;15.942;2023-04-19T13:09:27;12.60;99.90
24412;DHT22;12544;46.760;15.942;2023-04-19T13:11:56;12.70;99.90
24412;DHT22;12544;46.760;15.942;2023-04-19T13:14:28;12.70;99.90
24412;DHT22;12544;46.760;15.942;2023-04-19T13:16:54;12.80;99.90
24412;DHT22;12544;46.760;15.942;2023-04-19T13:19:20;12.80;99.90
24412;DHT22;12544;46.760;15.942;2023-04-19T13:21:45;12.90;99.90
24412;DHT22;12544;46.760;15.942;2023-04-19T13:24:11;13.10;99.90
24412;DHT22;12544;46.760;15.942;2023-04-19T13:26:37;13.10;99.90
24412;DHT22;12544;46.760;15.942;2023-04-19T13:29:03;13.20;99.90
24412;DHT22;12544;46.760;15.942;2023-04-19T13:31:30;13.10;99.90
24412;DHT22;12544;46.760;15.942;2023-04-19T13:33:56;13.20;99.90
24412;DHT22;12544;46.760;15.942;2023-04-19T13:36:22;13.20;99.90
24412;DHT22;12544;46.760;15.942;2023-04-19T13:38:47;13.20;99.90
24412;DHT22;12544;46.760;15.942;2023-04-19T13:41:13;13.30;99.90
24412;DHT22;12544;46.760;15.942;2023-04-19T13:43:39;13.40;99.90
24412;DHT22;12544;46.760;15.942;2023-04-19T13:46:05;13.40;99.90
24412;DHT22;12544;46.760;15.942;2023-04-19T13:48:30;13.40;99.90
24412;DHT22;12544;46.760;15.942;2023-04-19T13:50:57;13.50;99.90
24412;DHT22;12544;46.760;15.942;2023-04-19T13:53:24;13.50;99.90
24412;DHT22;12544;46.760;15.942;2023-04-19T13:55:51;13.50;99.90
24412;DHT22;12544;46.760;15.942;2023-04-19T13:58:17;13.50;99.90
24412;DHT22;12544;46.760;15.942;2023-04-19T14:00:43;13.50;99.90
24412;DHT22;12544;46.760;15.942;2023-04-19T14:03:09;13.50;99.90
24412;DHT22;12544;46.760;15.942;2023-04-19T14:05:34;13.60;99.90
24412;DHT22;12544;46.760;15.942;2023-04-19T14:08:00;13.50;99.90
24412;DHT22;12544;46.760;15.942;2023-04-19T14:10:26;13.60;99.90
24412;DHT22;12544;46.760;15.942;2023-04-19T14:12:52;13.70;99.90
24412;DHT22;12544;46.760;15.942;2023-04-19T14:15:21;13.80;99.90
24412;DHT22;12544;46.760;15.942;2023-04-19T14:17:48;13.70;99.90
24412;DHT22;12544;46.760;15.942;2023-04-19T14:20:15;13.70;99.90
24412;DHT22;12544;46.760;15.942;2023-04-19T14:22:40;13.70;99.90
24412;DHT22;12544;46.760;15.942;2023-04-19T14:25:06;13.80;99.90
24412;DHT22;12544;46.760;15.942;2023-04-19T14:27:32;13.70;99.90
24412;DHT22;12544;46.760;15.942;2023-04-19T14:29:58;13.70;99.90
24412;DHT22;12544;46.760;15.942;2023-04-19T14:32:24;13.60;99.90
24412;DHT22;12544;46.760;15.942;2023-04-19T14:35:08;13.60;99.90
24412;DHT22;12544;46.760;15.942;2023-04-19T14:37:35;13.50;99.90
24412;DHT22;12544;46.760;15.942;2023-04-19T14:40:01;13.50;99.90
24412;DHT22;12544;46.760;15.942;2023-04-19T14:42:27;13.50;99.90
24412;DHT22;12544;46.760;15.942;2023-04-19T14:44:52;13.40;99.90
24412;DHT22;12544;46.760;15.942;2023-04-19T14:47:19;13.40;99.90
24412;DHT22;12544;46.760;15.942;2023-04-19T14:49:45;13.30;99.90
24412;DHT22;12544;46.760;15.942;2023-04-19T14:52:11;13.30;99.90
24412;DHT22;12544;46.760;15.942;2023-04-19T14:54:36;13.20;99.90
24412;DHT22;12544;46.760;15.942;2023-04-19T14:57:02;13.40;99.90
24412;DHT22;12544;46.760;15.942;2023-04-19T14:59:28;13.40;99.90
24412;DHT22;12544;46.760;15.942;2023-04-19T15:01:53;13.50;99.90
24412;DHT22;12544;46.760;15.942;2023-04-19T15:04:21;13.50;99.90
24412;DHT22;12544;46.760;15.942;2023-04-19T15:06:47;13.50;99.90
24412;DHT22;12544;46.760;15.942;2023-04-19T15:09:12;13.50;99.90
24412;DHT22;12544;46.760;15.942;2023-04-19T15:11:38;13.50;99.90
24412;DHT22;12544;46.760;15.942;2023-04-19T15:14:03;13.50;99.90
24412;DHT22;12544;46.760;15.942;2023-04-19T15:16:29;13.60;99.90
24412;DHT22;12544;46.760;15.942;2023-04-19T15:18:55;13.70;99.90
24412;DHT22;12544;46.760;15.942;2023-04-19T15:21:21;13.70;99.90
24412;DHT22;12544;46.760;15.942;2023-04-19T15:23:47;13.70;99.90
24412;DHT22;12544;46.760;15.942;2023-04-19T15:26:13;13.80;99.90
24412;DHT22;12544;46.760;15.942;2023-04-19T15:28:49;14.00;99.90
24412;DHT22;12544;46.760;15.942;2023-04-19T15:31:14;14.20;99.90
24412;DHT22;12544;46.760;15.942;2023-04-19T15:33:40;14.40;99.90
24412;DHT22;12544;46.760;15.942;2023-04-19T15:36:06;14.30;99.90
24412;DHT22;12544;46.760;15.942;2023-04-19T15:38:32;14.20;99.90
24412;DHT22;12544;46.760;15.942;2023-04-19T15:40:58;14.10;99.90